sensor_id;sensor_type;location;lat;lon;timestamp;temperature;humidity
64987;DHT22;67903;52.108;9.358;2023-08-12T00:00:39;19.70;78.40
64987;DHT22;67903;52.108;9.358;2023-08-12T00:03:25;19.60;78.20
64987;DHT22;67903;52.108;9.358;2023-08-12T00:06:10;19.70;78.20
64987;DHT22;67903;52.108;9.358;2023-08-12T00:08:56;19.60;78.40
64987;DHT22;67903;52.108;9.358;2023-08-12T00:11:41;19.50;78.40
64987;DHT22;67903;52.108;9.358;2023-08-12T00:14:27;19.50;78.50
64987;DHT22;67903;52.108;9.358;2023-08-12T00:17:12;19.50;78.90
64987;DHT22;67903;52.108;9.358;2023-08-12T00:19:59;19.50;78.90
64987;DHT22;67903;52.108;9.358;2023-08-12T00:22:44;19.50;79.00
64987;DHT22;67903;52.108;9.358;2023-08-12T00:25:30;19.50;79.30
64987;DHT22;67903;52.108;9.358;2023-08-12T00:28:15;19.50;79.30
64987;DHT22;67903;52.108;9.358;2023-08-12T00:31:01;19.50;79.30
64987;DHT22;67903;52.108;9.358;2023-08-12T00:33:46;19.40;79.40
64987;DHT22;67903;52.108;9.358;2023-08-12T00:36:32;19.40;79.60
64987;DHT22;67903;52.108;9.358;2023-08-12T00:39:17;19.30;79.80
64987;DHT22;67903;52.108;9.358;2023-08-12T00:42:03;19.30;79.90
64987;DHT22;67903;52.108;9.358;2023-08-12T00:44:48;19.30;79.80
64987;DHT22;67903;52.108;9.358;2023-08-12T00:47:34;19.30;80.10
64987;DHT22;67903;52.108;9.358;2023-08-12T00:50:20;19.20;80.00
64987;DHT22;67903;52.108;9.358;2023-08-12T00:53:06;19.20;80.00
64987;DHT22;67903;52.108;9.358;2023-08-12T00:55:52;19.20;80.10
64987;DHT22;67903;52.108;9.358;2023-08-12T00:58:38;19.20;80.20
64987;DHT22;67903;52.108;9.358;2023-08-12T01:01:24;19.20;80.00
64987;DHT22;67903;52.108;9.358;2023-08-12T01:04:10;19.20;79.70
64987;DHT22;67903;52.108;9.358;2023-08-12T01:06:56;19.30;79.50
64987;DHT22;67903;52.108;9.358;2023-08-12T01:09:41;19.20;79.60
64987;DHT22;67903;52.108;9.358;2023-08-12T01:13:27;19.20;79.70
64987;DHT22;67903;52.108;9.358;2023-08-12T01:15:47;19.10;79.80
64987;DHT22;67903;52.108;9.358;2023-08-12T01:18:37;19.20;79.70
64987;DHT22;67903;52.108;9.358;2023-08-12T01:21:24;19.20;79.80
64987;DHT22;67903;52.108;9.358;2023-08-12T01:24:11;19.20;79.90
64987;DHT22;67903;52.108;9.358;2023-08-12T01:26:57;19.20;79.80
64987;DHT22;67903;52.108;9.358;2023-08-12T01:29:45;19.20;79.80
64987;DHT22;67903;52.108;9.358;2023-08-12T01:35:33;19.10;80.10
64987;DHT22;67903;52.108;9.358;2023-08-12T01:38:21;19.10;80.00
64987;DHT22;67903;52.108;9.358;2023-08-12T01:41:09;19.20;79.90
64987;DHT22;67903;52.108;9.358;2023-08-12T01:43:55;19.20;79.80
64987;DHT22;67903;52.108;9.358;2023-08-12T01:46:43;19.20;79.90
64987;DHT22;67903;52.108;9.358;2023-08-12T01:49:28;19.00;80.20
64987;DHT22;67903;52.108;9.358;2023-08-12T01:52:14;19.20;79.50
64987;DHT22;67903;52.108;9.358;2023-08-12T01:55:00;19.20;79.40
64987;DHT22;67903;52.108;9.358;2023-08-12T01:57:46;19.20;79.80
64987;DHT22;67903;52.108;9.358;2023-08-12T02:00:32;19.20;79.80
64987;DHT22;67903;52.108;9.358;2023-08-12T02:03:17;19.20;79.70
64987;DHT22;67903;52.108;9.358;2023-08-12T02:06:03;19.10;80.50
64987;DHT22;67903;52.108;9.358;2023-08-12T02:08:48;19.10;80.30
64987;DHT22;67903;52.108;9.358;2023-08-12T02:11:34;19.10;80.50
64987;DHT22;67903;52.108;9.358;2023-08-12T02:14:19;19.00;80.60
64987;DHT22;67903;52.108;9.358;2023-08-12T02:17:05;19.00;80.80
64987;DHT22;67903;52.108;9.358;2023-08-12T02:19:51;19.00;80.70
64987;DHT22;67903;52.108;9.358;2023-08-12T02:22:37;19.10;80.50
64987;DHT22;67903;52.108;9.358;2023-08-12T02:25:23;19.00;80.60
64987;DHT22;67903;52.108;9.358;2023-08-12T02:28:08;19.00;80.40
64987;DHT22;67903;52.108;9.358;2023-08-12T02:30:54;19.10;80.50
64987;DHT22;67903;52.108;9.358;2023-08-12T02:33:39;19.00;80.70
64987;DHT22;67903;52.108;9.358;2023-08-12T02:36:26;19.10;80.40
64987;DHT22;67903;52.108;9.358;2023-08-12T02:39:13;19.10;80.20
64987;DHT22;67903;52.108;9.358;2023-08-12T02:41:59;19.20;80.00
64987;DHT22;67903;52.108;9.358;2023-08-12T02:44:45;19.20;79.80
64987;DHT22;67903;52.108;9.358;2023-08-12T02:47:31;19.20;79.90
64987;DHT22;67903;52.108;9.358;2023-08-12T02:50:17;19.20;79.80
64987;DHT22;67903;52.108;9.358;2023-08-12T02:53:02;19.20;80.00
64987;DHT22;67903;52.108;9.358;2023-08-12T02:55:48;19.30;80.00
64987;DHT22;67903;52.108;9.358;2023-08-12T02:58:34;19.30;80.50
64987;DHT22;67903;52.108;9.358;2023-08-12T03:01:20;19.20;80.70
64987;DHT22;67903;52.108;9.358;2023-08-12T03:04:06;19.20;81.10
64987;DHT22;67903;52.108;9.358;2023-08-12T03:06:52;19.10;81.80
64987;DHT22;67903;52.108;9.358;2023-08-12T03:09:37;18.90;82.50
64987;DHT22;67903;52.108;9.358;2023-08-12T03:12:23;18.90;82.20
64987;DHT22;67903;52.108;9.358;2023-08-12T03:15:10;18.90;82.20
64987;DHT22;67903;52.108;9.358;2023-08-12T03:17:56;18.90;82.00
64987;DHT22;67903;52.108;9.358;2023-08-12T03:20:42;18.90;82.30
64987;DHT22;67903;52.108;9.358;2023-08-12T03:23:28;18.90;81.90
64987;DHT22;67903;52.108;9.358;2023-08-12T03:26:15;18.80;82.60
64987;DHT22;67903;52.108;9.358;2023-08-12T03:29:01;18.80;82.70
64987;DHT22;67903;52.108;9.358;2023-08-12T03:31:46;18.70;83.00
64987;DHT22;67903;52.108;9.358;2023-08-12T03:34:33;18.70;83.40
64987;DHT22;67903;52.108;9.358;2023-08-12T03:37:19;18.60;83.90
64987;DHT22;67903;52.108;9.358;2023-08-12T03:40:08;18.70;83.70
64987;DHT22;67903;52.108;9.358;2023-08-12T03:42:55;18.70;83.70
64987;DHT22;67903;52.108;9.358;2023-08-12T03:45:43;18.70;83.60
64987;DHT22;67903;52.108;9.358;2023-08-12T03:48:32;18.70;83.50
64987;DHT22;67903;52.108;9.358;2023-08-12T03:51:18;18.80;83.80
64987;DHT22;67903;52.108;9.358;2023-08-12T03:54:04;18.70;84.80
64987;DHT22;67903;52.108;9.358;2023-08-12T03:56:50;18.70;84.40
64987;DHT22;67903;52.108;9.358;2023-08-12T03:59:36;18.70;84.70
64987;DHT22;67903;52.108;9.358;2023-08-12T04:02:21;18.70;85.60
64987;DHT22;67903;52.108;9.358;2023-08-12T04:05:07;18.70;86.60
64987;DHT22;67903;52.108;9.358;2023-08-12T04:07:53;18.60;87.20
64987;DHT22;67903;52.108;9.358;2023-08-12T04:10:38;18.60;86.50
64987;DHT22;67903;52.108;9.358;2023-08-12T04:13:24;18.60;86.90
64987;DHT22;67903;52.108;9.358;2023-08-12T04:16:09;18.60;87.30
64987;DHT22;67903;52.108;9.358;2023-08-12T04:18:55;18.60;87.70
64987;DHT22;67903;52.108;9.358;2023-08-12T04:21:40;18.50;89.50
64987;DHT22;67903;52.108;9.358;2023-08-12T04:24:25;18.50;88.90
64987;DHT22;67903;52.108;9.358;2023-08-12T04:27:12;18.50;90.00
64987;DHT22;67903;52.108;9.358;2023-08-12T04:29:58;18.50;89.40
64987;DHT22;67903;52.108;9.358;2023-08-12T04:32:44;18.50;89.60
64987;DHT22;67903;52.108;9.358;2023-08-12T04:35:31;18.50;89.10
64987;DHT22;67903;52.108;9.358;2023-08-12T04:38:18;18.60;90.40
64987;DHT22;67903;52.108;9.358;2023-08-12T04:41:07;18.50;90.30
64987;DHT22;67903;52.108;9.358;2023-08-12T04:43:53;18.50;90.10
64987;DHT22;67903;52.108;9.358;2023-08-12T04:46:43;18.50;90.10
64987;DHT22;67903;52.108;9.358;2023-08-12T04:49:28;18.50;90.60
64987;DHT22;67903;52.108;9.358;2023-08-12T04:52:14;18.60;90.40
64987;DHT22;67903;52.108;9.358;2023-08-12T04:55:00;18.60;90.50
64987;DHT22;67903;52.108;9.358;2023-08-12T04:57:45;18.60;90.10
64987;DHT22;67903;52.108;9.358;2023-08-12T05:00:31;18.60;89.70
64987;DHT22;67903;52.108;9.358;2023-08-12T05:03:17;18.60;90.10
64987;DHT22;67903;52.108;9.358;2023-08-12T05:06:03;18.60;89.90
64987;DHT22;67903;52.108;9.358;2023-08-12T05:08:49;18.70;89.60
64987;DHT22;67903;52.108;9.358;2023-08-12T05:11:34;18.80;88.80
64987;DHT22;67903;52.108;9.358;2023-08-12T05:14:20;18.80;88.10
64987;DHT22;67903;52.108;9.358;2023-08-12T05:17:07;18.80;88.10
64987;DHT22;67903;52.108;9.358;2023-08-12T05:19:53;18.80;88.40
64987;DHT22;67903;52.108;9.358;2023-08-12T05:22:39;18.80;88.70
64987;DHT22;67903;52.108;9.358;2023-08-12T05:25:25;18.80;89.10
64987;DHT22;67903;52.108;9.358;2023-08-12T05:28:10;18.80;89.10
64987;DHT22;67903;52.108;9.358;2023-08-12T05:30:56;18.70;89.40
64987;DHT22;67903;52.108;9.358;2023-08-12T05:33:42;18.80;89.70
64987;DHT22;67903;52.108;9.358;2023-08-12T05:36:28;18.70;90.10
64987;DHT22;67903;52.108;9.358;2023-08-12T05:39:13;18.60;90.10
64987;DHT22;67903;52.108;9.358;2023-08-12T05:42:00;18.60;90.10
64987;DHT22;67903;52.108;9.358;2023-08-12T05:44:46;18.60;90.40
64987;DHT22;67903;52.108;9.358;2023-08-12T05:47:32;18.70;90.20
64987;DHT22;67903;52.108;9.358;2023-08-12T05:50:17;18.70;90.00
64987;DHT22;67903;52.108;9.358;2023-08-12T05:53:03;18.70;90.00
64987;DHT22;67903;52.108;9.358;2023-08-12T05:55:48;18.70;90.30
64987;DHT22;67903;52.108;9.358;2023-08-12T05:58:34;18.70;90.50
64987;DHT22;67903;52.108;9.358;2023-08-12T06:01:20;18.70;90.70
64987;DHT22;67903;52.108;9.358;2023-08-12T06:04:05;18.80;90.90
64987;DHT22;67903;52.108;9.358;2023-08-12T06:06:51;18.90;90.40
64987;DHT22;67903;52.108;9.358;2023-08-12T06:09:36;19.00;90.00
64987;DHT22;67903;52.108;9.358;2023-08-12T06:12:22;19.10;89.10
64987;DHT22;67903;52.108;9.358;2023-08-12T06:15:08;19.20;89.10
64987;DHT22;67903;52.108;9.358;2023-08-12T06:17:53;19.30;88.30
64987;DHT22;67903;52.108;9.358;2023-08-12T06:20:39;19.30;87.60
64987;DHT22;67903;52.108;9.358;2023-08-12T06:23:24;19.20;87.70
64987;DHT22;67903;52.108;9.358;2023-08-12T06:26:12;19.30;87.70
64987;DHT22;67903;52.108;9.358;2023-08-12T06:28:57;19.40;87.70
64987;DHT22;67903;52.108;9.358;2023-08-12T06:31:43;19.40;87.50
64987;DHT22;67903;52.108;9.358;2023-08-12T06:34:29;19.40;87.40
64987;DHT22;67903;52.108;9.358;2023-08-12T06:37:14;19.40;87.90
64987;DHT22;67903;52.108;9.358;2023-08-12T06:40:00;19.40;87.40
64987;DHT22;67903;52.108;9.358;2023-08-12T06:42:46;19.40;87.30
64987;DHT22;67903;52.108;9.358;2023-08-12T06:45:31;19.40;87.20
64987;DHT22;67903;52.108;9.358;2023-08-12T06:48:17;19.40;87.50
64987;DHT22;67903;52.108;9.358;2023-08-12T06:51:02;19.40;87.30
64987;DHT22;67903;52.108;9.358;2023-08-12T06:53:55;19.40;87.50
64987;DHT22;67903;52.108;9.358;2023-08-12T06:56:40;19.30;87.50
64987;DHT22;67903;52.108;9.358;2023-08-12T06:59:26;19.20;88.10
64987;DHT22;67903;52.108;9.358;2023-08-12T07:02:11;19.10;88.80
64987;DHT22;67903;52.108;9.358;2023-08-12T07:04:58;19.00;89.30
64987;DHT22;67903;52.108;9.358;2023-08-12T07:07:43;18.90;89.60
64987;DHT22;67903;52.108;9.358;2023-08-12T07:10:29;19.10;89.30
64987;DHT22;67903;52.108;9.358;2023-08-12T07:13:15;19.20;89.70
64987;DHT22;67903;52.108;9.358;2023-08-12T07:16:01;19.30;89.70
64987;DHT22;67903;52.108;9.358;2023-08-12T07:18:46;19.30;89.60
64987;DHT22;67903;52.108;9.358;2023-08-12T07:21:32;19.10;89.50
64987;DHT22;67903;52.108;9.358;2023-08-12T07:24:17;19.20;89.70
64987;DHT22;67903;52.108;9.358;2023-08-12T07:27:03;19.20;89.90
64987;DHT22;67903;52.108;9.358;2023-08-12T07:29:52;19.10;89.90
64987;DHT22;67903;52.108;9.358;2023-08-12T07:32:38;19.10;90.40
64987;DHT22;67903;52.108;9.358;2023-08-12T07:35:24;19.20;90.40
64987;DHT22;67903;52.108;9.358;2023-08-12T07:38:10;19.20;90.70
64987;DHT22;67903;52.108;9.358;2023-08-12T07:40:56;19.20;90.40
64987;DHT22;67903;52.108;9.358;2023-08-12T07:43:41;19.20;90.60
64987;DHT22;67903;52.108;9.358;2023-08-12T07:46:28;19.30;90.50
64987;DHT22;67903;52.108;9.358;2023-08-12T07:49:16;19.40;90.50
64987;DHT22;67903;52.108;9.358;2023-08-12T07:52:01;19.30;89.90
64987;DHT22;67903;52.108;9.358;2023-08-12T07:54:47;19.40;89.60
64987;DHT22;67903;52.108;9.358;2023-08-12T07:57:33;19.40;90.20
64987;DHT22;67903;52.108;9.358;2023-08-12T08:00:18;19.50;90.10
64987;DHT22;67903;52.108;9.358;2023-08-12T08:03:05;19.50;90.10
64987;DHT22;67903;52.108;9.358;2023-08-12T08:05:50;19.50;90.20
64987;DHT22;67903;52.108;9.358;2023-08-12T08:08:36;19.60;89.30
64987;DHT22;67903;52.108;9.358;2023-08-12T08:11:21;19.70;88.80
64987;DHT22;67903;52.108;9.358;2023-08-12T08:14:07;19.80;88.70
64987;DHT22;67903;52.108;9.358;2023-08-12T08:16:53;20.00;88.30
64987;DHT22;67903;52.108;9.358;2023-08-12T08:19:39;20.20;87.70
64987;DHT22;67903;52.108;9.358;2023-08-12T08:22:25;20.30;87.10
64987;DHT22;67903;52.108;9.358;2023-08-12T08:25:10;20.40;86.70
64987;DHT22;67903;52.108;9.358;2023-08-12T08:27:56;20.40;86.50
64987;DHT22;67903;52.108;9.358;2023-08-12T08:30:42;20.30;86.40
64987;DHT22;67903;52.108;9.358;2023-08-12T08:33:27;20.40;85.50
64987;DHT22;67903;52.108;9.358;2023-08-12T08:36:13;20.50;85.20
64987;DHT22;67903;52.108;9.358;2023-08-12T08:38:58;20.70;84.70
64987;DHT22;67903;52.108;9.358;2023-08-12T08:41:47;20.90;83.90
64987;DHT22;67903;52.108;9.358;2023-08-12T08:44:33;21.10;83.00
64987;DHT22;67903;52.108;9.358;2023-08-12T08:47:26;21.30;82.10
64987;DHT22;67903;52.108;9.358;2023-08-12T08:50:12;21.50;80.80
64987;DHT22;67903;52.108;9.358;2023-08-12T08:52:59;21.70;81.30
64987;DHT22;67903;52.108;9.358;2023-08-12T08:55:46;21.90;80.80
64987;DHT22;67903;52.108;9.358;2023-08-12T08:58:33;21.90;79.20
64987;DHT22;67903;52.108;9.358;2023-08-12T09:01:20;21.90;79.30
64987;DHT22;67903;52.108;9.358;2023-08-12T09:04:07;21.90;78.90
64987;DHT22;67903;52.108;9.358;2023-08-12T09:06:54;22.00;78.90
64987;DHT22;67903;52.108;9.358;2023-08-12T09:09:44;22.00;79.00
64987;DHT22;67903;52.108;9.358;2023-08-12T09:12:30;22.00;78.80
64987;DHT22;67903;52.108;9.358;2023-08-12T09:15:17;22.00;79.30
64987;DHT22;67903;52.108;9.358;2023-08-12T09:18:07;22.00;79.50
64987;DHT22;67903;52.108;9.358;2023-08-12T09:20:53;21.90;79.30
64987;DHT22;67903;52.108;9.358;2023-08-12T09:23:40;21.90;79.40
64987;DHT22;67903;52.108;9.358;2023-08-12T09:26:26;21.70;79.50
64987;DHT22;67903;52.108;9.358;2023-08-12T09:29:13;21.70;79.80
64987;DHT22;67903;52.108;9.358;2023-08-12T09:32:25;21.80;79.80
64987;DHT22;67903;52.108;9.358;2023-08-12T09:35:16;21.90;79.80
64987;DHT22;67903;52.108;9.358;2023-08-12T09:38:03;21.90;79.30
64987;DHT22;67903;52.108;9.358;2023-08-12T09:40:48;21.80;79.00
64987;DHT22;67903;52.108;9.358;2023-08-12T09:43:34;21.70;79.90
64987;DHT22;67903;52.108;9.358;2023-08-12T09:46:22;21.60;80.70
64987;DHT22;67903;52.108;9.358;2023-08-12T09:49:08;21.50;81.60
64987;DHT22;67903;52.108;9.358;2023-08-12T09:51:55;21.80;81.70
64987;DHT22;67903;52.108;9.358;2023-08-12T09:54:41;21.90;81.50
64987;DHT22;67903;52.108;9.358;2023-08-12T09:57:28;22.00;81.10
64987;DHT22;67903;52.108;9.358;2023-08-12T10:00:15;22.20;81.60
64987;DHT22;67903;52.108;9.358;2023-08-12T10:03:05;22.50;80.30
64987;DHT22;67903;52.108;9.358;2023-08-12T10:05:51;22.70;78.90
64987;DHT22;67903;52.108;9.358;2023-08-12T10:08:37;22.80;77.60
64987;DHT22;67903;52.108;9.358;2023-08-12T10:11:23;22.90;77.60
64987;DHT22;67903;52.108;9.358;2023-08-12T10:14:10;23.10;77.60
64987;DHT22;67903;52.108;9.358;2023-08-12T10:16:56;23.20;76.80
64987;DHT22;67903;52.108;9.358;2023-08-12T10:19:55;23.40;76.00
64987;DHT22;67903;52.108;9.358;2023-08-12T10:22:42;23.80;76.60
64987;DHT22;67903;52.108;9.358;2023-08-12T10:25:32;24.20;74.50
64987;DHT22;67903;52.108;9.358;2023-08-12T10:28:19;24.40;73.60
64987;DHT22;67903;52.108;9.358;2023-08-12T10:31:05;24.50;72.10
64987;DHT22;67903;52.108;9.358;2023-08-12T10:33:52;24.50;72.10
64987;DHT22;67903;52.108;9.358;2023-08-12T10:36:41;24.70;71.10
64987;DHT22;67903;52.108;9.358;2023-08-12T10:39:45;24.70;71.20
64987;DHT22;67903;52.108;9.358;2023-08-12T10:42:45;24.80;70.90
64987;DHT22;67903;52.108;9.358;2023-08-12T10:45:47;24.70;70.90
64987;DHT22;67903;52.108;9.358;2023-08-12T10:48:33;24.60;71.30
64987;DHT22;67903;52.108;9.358;2023-08-12T10:54:27;24.80;70.40
64987;DHT22;67903;52.108;9.358;2023-08-12T10:57:16;25.00;69.80
64987;DHT22;67903;52.108;9.358;2023-08-12T11:00:02;25.20;69.90
64987;DHT22;67903;52.108;9.358;2023-08-12T11:02:53;25.20;69.10
64987;DHT22;67903;52.108;9.358;2023-08-12T11:05:39;25.40;68.30
64987;DHT22;67903;52.108;9.358;2023-08-12T11:08:26;25.60;68.20
64987;DHT22;67903;52.108;9.358;2023-08-12T11:11:26;25.60;68.20
64987;DHT22;67903;52.108;9.358;2023-08-12T11:14:14;25.50;67.90
64987;DHT22;67903;52.108;9.358;2023-08-12T11:17:00;25.40;68.40
64987;DHT22;67903;52.108;9.358;2023-08-12T11:19:57;25.50;67.60
64987;DHT22;67903;52.108;9.358;2023-08-12T11:22:44;25.40;68.70
64987;DHT22;67903;52.108;9.358;2023-08-12T11:25:30;25.20;69.10
64987;DHT22;67903;52.108;9.358;2023-08-12T11:28:18;25.00;69.50
64987;DHT22;67903;52.108;9.358;2023-08-12T11:31:06;25.00;69.70
64987;DHT22;67903;52.108;9.358;2023-08-12T11:33:52;24.70;70.40
64987;DHT22;67903;52.108;9.358;2023-08-12T11:36:39;24.60;70.00
64987;DHT22;67903;52.108;9.358;2023-08-12T11:39:25;24.50;70.00
64987;DHT22;67903;52.108;9.358;2023-08-12T11:42:10;24.50;70.50
64987;DHT22;67903;52.108;9.358;2023-08-12T11:44:56;24.80;69.40
64987;DHT22;67903;52.108;9.358;2023-08-12T11:47:42;25.10;68.30
64987;DHT22;67903;52.108;9.358;2023-08-12T11:50:28;25.40;67.90
64987;DHT22;67903;52.108;9.358;2023-08-12T11:53:14;25.30;67.60
64987;DHT22;67903;52.108;9.358;2023-08-12T11:55:59;25.00;67.80
64987;DHT22;67903;52.108;9.358;2023-08-12T11:58:48;25.00;68.50
64987;DHT22;67903;52.108;9.358;2023-08-12T12:01:38;24.90;68.60
64987;DHT22;67903;52.108;9.358;2023-08-12T12:04:24;25.00;68.70
64987;DHT22;67903;52.108;9.358;2023-08-12T12:07:19;25.30;68.30
64987;DHT22;67903;52.108;9.358;2023-08-12T12:10:06;25.30;67.50
64987;DHT22;67903;52.108;9.358;2023-08-12T12:12:53;25.60;67.00
64987;DHT22;67903;52.108;9.358;2023-08-12T12:15:42;25.80;66.80
64987;DHT22;67903;52.108;9.358;2023-08-12T12:18:28;26.00;66.60
64987;DHT22;67903;52.108;9.358;2023-08-12T12:21:20;26.10;66.30
64987;DHT22;67903;52.108;9.358;2023-08-12T12:24:07;26.00;66.20
64987;DHT22;67903;52.108;9.358;2023-08-12T12:26:53;25.80;67.20
64987;DHT22;67903;52.108;9.358;2023-08-12T12:29:39;25.30;67.50
64987;DHT22;67903;52.108;9.358;2023-08-12T12:32:24;25.00;68.20
64987;DHT22;67903;52.108;9.358;2023-08-12T12:35:10;25.20;68.20
64987;DHT22;67903;52.108;9.358;2023-08-12T12:37:55;25.70;67.60
64987;DHT22;67903;52.108;9.358;2023-08-12T12:40:41;26.10;67.20
64987;DHT22;67903;52.108;9.358;2023-08-12T12:43:26;26.50;65.60
64987;DHT22;67903;52.108;9.358;2023-08-12T12:46:12;26.70;65.60
64987;DHT22;67903;52.108;9.358;2023-08-12T12:48:57;26.60;65.50
64987;DHT22;67903;52.108;9.358;2023-08-12T12:51:43;26.60;64.50
64987;DHT22;67903;52.108;9.358;2023-08-12T12:54:28;26.50;64.70
64987;DHT22;67903;52.108;9.358;2023-08-12T12:57:16;26.20;64.80
64987;DHT22;67903;52.108;9.358;2023-08-12T13:00:01;26.20;64.70
64987;DHT22;67903;52.108;9.358;2023-08-12T13:02:47;26.50;63.80
64987;DHT22;67903;52.108;9.358;2023-08-12T13:05:32;26.40;63.20
64987;DHT22;67903;52.108;9.358;2023-08-12T13:08:18;26.20;63.00
64987;DHT22;67903;52.108;9.358;2023-08-12T13:11:04;26.00;63.30
64987;DHT22;67903;52.108;9.358;2023-08-12T13:13:49;26.10;62.60
64987;DHT22;67903;52.108;9.358;2023-08-12T13:16:35;25.90;62.80
64987;DHT22;67903;52.108;9.358;2023-08-12T13:19:20;26.00;61.40
64987;DHT22;67903;52.108;9.358;2023-08-12T13:22:06;26.00;60.90
64987;DHT22;67903;52.108;9.358;2023-08-12T13:24:52;26.40;59.70
64987;DHT22;67903;52.108;9.358;2023-08-12T13:27:38;26.40;59.60
64987;DHT22;67903;52.108;9.358;2023-08-12T13:30:24;26.60;58.70
64987;DHT22;67903;52.108;9.358;2023-08-12T13:33:09;26.10;59.70
64987;DHT22;67903;52.108;9.358;2023-08-12T13:35:54;26.00;59.90
64987;DHT22;67903;52.108;9.358;2023-08-12T13:38:40;26.40;59.30
64987;DHT22;67903;52.108;9.358;2023-08-12T13:41:26;26.50;59.20
64987;DHT22;67903;52.108;9.358;2023-08-12T13:44:11;26.30;59.30
64987;DHT22;67903;52.108;9.358;2023-08-12T13:46:57;26.10;59.80
64987;DHT22;67903;52.108;9.358;2023-08-12T13:49:42;26.00;60.00
64987;DHT22;67903;52.108;9.358;2023-08-12T13:52:28;25.80;60.20
64987;DHT22;67903;52.108;9.358;2023-08-12T13:55:13;25.80;59.90
64987;DHT22;67903;52.108;9.358;2023-08-12T13:57:59;25.80;59.70
64987;DHT22;67903;52.108;9.358;2023-08-12T14:00:45;25.60;60.10
64987;DHT22;67903;52.108;9.358;2023-08-12T14:03:31;25.60;60.00
64987;DHT22;67903;52.108;9.358;2023-08-12T14:06:17;25.50;60.40
64987;DHT22;67903;52.108;9.358;2023-08-12T14:09:03;25.50;60.70
64987;DHT22;67903;52.108;9.358;2023-08-12T14:11:49;25.60;60.30
64987;DHT22;67903;52.108;9.358;2023-08-12T14:14:34;25.60;60.70
64987;DHT22;67903;52.108;9.358;2023-08-12T14:17:20;25.80;60.30
64987;DHT22;67903;52.108;9.358;2023-08-12T14:20:08;25.90;60.40
64987;DHT22;67903;52.108;9.358;2023-08-12T14:22:54;25.80;60.80
64987;DHT22;67903;52.108;9.358;2023-08-12T14:25:39;26.30;59.80
64987;DHT22;67903;52.108;9.358;2023-08-12T14:28:25;26.40;59.20
64987;DHT22;67903;52.108;9.358;2023-08-12T14:31:11;26.10;60.40
64987;DHT22;67903;52.108;9.358;2023-08-12T14:33:56;26.00;60.90
64987;DHT22;67903;52.108;9.358;2023-08-12T14:36:42;25.60;61.40
64987;DHT22;67903;52.108;9.358;2023-08-12T14:39:27;25.30;62.40
64987;DHT22;67903;52.108;9.358;2023-08-12T14:42:13;25.00;63.00
64987;DHT22;67903;52.108;9.358;2023-08-12T14:44:59;24.70;64.10
64987;DHT22;67903;52.108;9.358;2023-08-12T14:47:44;24.40;65.70
64987;DHT22;67903;52.108;9.358;2023-08-12T14:50:30;22.20;87.50
64987;DHT22;67903;52.108;9.358;2023-08-12T14:53:17;20.40;99.20
64987;DHT22;67903;52.108;9.358;2023-08-12T14:56:02;20.20;99.90
64987;DHT22;67903;52.108;9.358;2023-08-12T14:58:48;20.10;99.90
64987;DHT22;67903;52.108;9.358;2023-08-12T15:01:33;20.10;99.90
64987;DHT22;67903;52.108;9.358;2023-08-12T15:04:19;20.20;99.90
64987;DHT22;67903;52.108;9.358;2023-08-12T15:07:04;20.00;99.90
64987;DHT22;67903;52.108;9.358;2023-08-12T15:09:50;19.90;99.90
64987;DHT22;67903;52.108;9.358;2023-08-12T15:12:37;19.80;99.90
64987;DHT22;67903;52.108;9.358;2023-08-12T15:15:23;19.80;99.90
64987;DHT22;67903;52.108;9.358;2023-08-12T15:18:08;19.90;99.90
64987;DHT22;67903;52.108;9.358;2023-08-12T15:20:54;20.00;99.90
64987;DHT22;67903;52.108;9.358;2023-08-12T15:23:39;20.00;99.90
64987;DHT22;67903;52.108;9.358;2023-08-12T15:26:25;20.00;99.90
64987;DHT22;67903;52.108;9.358;2023-08-12T15:29:10;20.00;99.90
64987;DHT22;67903;52.108;9.358;2023-08-12T15:31:56;20.10;99.90
64987;DHT22;67903;52.108;9.358;2023-08-12T15:34:41;20.20;99.90
64987;DHT22;67903;52.108;9.358;2023-08-12T15:37:27;20.40;99.90
64987;DHT22;67903;52.108;9.358;2023-08-12T15:40:14;20.40;99.90
64987;DHT22;67903;52.108;9.358;2023-08-12T15:42:59;20.30;99.90
64987;DHT22;67903;52.108;9.358;2023-08-12T15:45:45;20.30;99.90
64987;DHT22;67903;52.108;9.358;2023-08-12T15:48:30;20.10;99.90
64987;DHT22;67903;52.108;9.358;2023-08-12T15:51:16;20.10;99.90
64987;DHT22;67903;52.108;9.358;2023-08-12T15:54:02;20.10;99.90
64987;DHT22;67903;52.108;9.358;2023-08-12T15:56:47;20.10;99.90
64987;DHT22;67903;52.108;9.358;2023-08-12T15:59:33;20.30;99.90
64987;DHT22;67903;52.108;9.358;2023-08-12T16:02:18;20.30;99.90
64987;DHT22;67903;52.108;9.358;2023-08-12T16:05:04;20.30;99.90
64987;DHT22;67903;52.108;9.358;2023-08-12T16:07:53;20.30;99.90
64987;DHT22;67903;52.108;9.358;2023-08-12T16:10:38;20.30;99.90
64987;DHT22;67903;52.108;9.358;2023-08-12T16:13:24;20.40;99.90
64987;DHT22;67903;52.108;9.358;2023-08-12T16:16:10;20.30;99.90
64987;DHT22;67903;52.108;9.358;2023-08-12T16:18:55;20.30;99.90
64987;DHT22;67903;52.108;9.358;2023-08-12T16:21:41;20.30;99.90
64987;DHT22;67903;52.108;9.358;2023-08-12T16:24:27;20.40;99.90
64987;DHT22;67903;52.108;9.358;2023-08-12T16:27:12;20.50;99.90
64987;DHT22;67903;52.108;9.358;2023-08-12T16:29:58;20.30;99.90
64987;DHT22;67903;52.108;9.358;2023-08-12T16:32:44;20.30;99.90
64987;DHT22;67903;52.108;9.358;2023-08-12T16:35:29;20.10;99.90
64987;DHT22;67903;52.108;9.358;2023-08-12T16:38:15;20.20;99.90
64987;DHT22;67903;52.108;9.358;2023-08-12T16:41:01;20.10;99.90
64987;DHT22;67903;52.108;9.358;2023-08-12T16:43:46;20.20;99.90
64987;DHT22;67903;52.108;9.358;2023-08-12T16:46:32;20.30;99.90
64987;DHT22;67903;52.108;9.358;2023-08-12T16:49:17;20.30;99.90
64987;DHT22;67903;52.108;9.358;2023-08-12T16:52:03;20.50;99.90
64987;DHT22;67903;52.108;9.358;2023-08-12T16:54:49;20.30;99.90
64987;DHT22;67903;52.108;9.358;2023-08-12T16:57:34;20.10;99.90
64987;DHT22;67903;52.108;9.358;2023-08-12T17:00:20;20.30;99.90
64987;DHT22;67903;52.108;9.358;2023-08-12T17:03:05;20.20;99.90
64987;DHT22;67903;52.108;9.358;2023-08-12T17:05:51;20.10;99.90
64987;DHT22;67903;52.108;9.358;2023-08-12T17:08:36;20.10;99.90
64987;DHT22;67903;52.108;9.358;2023-08-12T17:11:22;20.10;99.90
64987;DHT22;67903;52.108;9.358;2023-08-12T17:14:07;20.10;99.90
64987;DHT22;67903;52.108;9.358;2023-08-12T17:16:54;20.10;99.90
64987;DHT22;67903;52.108;9.358;2023-08-12T17:19:41;20.00;99.90
64987;DHT22;67903;52.108;9.358;2023-08-12T17:22:26;20.00;99.90
64987;DHT22;67903;52.108;9.358;2023-08-12T17:25:12;20.00;99.90
64987;DHT22;67903;52.108;9.358;2023-08-12T17:27:58;19.90;99.90
64987;DHT22;67903;52.108;9.358;2023-08-12T17:30:43;19.70;99.90
64987;DHT22;67903;52.108;9.358;2023-08-12T17:33:29;19.70;99.90
64987;DHT22;67903;52.108;9.358;2023-08-12T17:36:14;19.70;99.90